DAL1094 KLAS-KSLC
Flight info
| Callsign | DAL1094 |
|---|---|
| Flight time | 1h 4m |
| Altitude | 33000 |
| Route | RATPK3 FRNCK MLF PITTT1 |
| Aircraft | A320/M-SDE3FGHIRWY/LB1 |
Departure
| Time | 2026-05-06 03:08 |
|---|---|
| Airport | Harry Reid International Airport (KLAS) |
Arrival
| Time | 2026-05-06 04:12 |
|---|---|
| Airport | Salt Lake City International Airport (KSLC) |
| Time | Latitude | Longitude | Altitude | Speed | Heading |
|---|---|---|---|---|---|
| 2026-05-06 02:51 | 36.08085 | -115.14592 | 2117 ft | 0 kts | 254° |
| 2026-05-06 02:58 | 36.08086 | -115.14587 | 2116 ft | 3 kts | 254° |
| 2026-05-06 02:58 | 36.08091 | -115.14566 | 2114 ft | 3 kts | 254° |
| 2026-05-06 02:58 | 36.08096 | -115.14544 | 2115 ft | 3 kts | 238° |
| 2026-05-06 02:58 | 36.08105 | -115.14532 | 2114 ft | 0 kts | 179° |
| 2026-05-06 03:01 | 36.08098 | -115.14532 | 2113 ft | 3 kts | 179° |
| 2026-05-06 03:01 | 36.08063 | -115.14523 | 2114 ft | 7 kts | 167° |
| 2026-05-06 03:01 | 36.08004 | -115.14500 | 2115 ft | 10 kts | 161° |
| 2026-05-06 03:01 | 36.07930 | -115.14478 | 2116 ft | 11 kts | 177° |
| 2026-05-06 03:02 | 36.07859 | -115.14467 | 2118 ft | 9 kts | 144° |
| 2026-05-06 03:02 | 36.07836 | -115.14397 | 2119 ft | 8 kts | 98° |
| 2026-05-06 03:02 | 36.07829 | -115.14337 | 2119 ft | 7 kts | 96° |
| 2026-05-06 03:02 | 36.07827 | -115.14281 | 2118 ft | 7 kts | 91° |
| 2026-05-06 03:03 | 36.07827 | -115.14216 | 2117 ft | 11 kts | 90° |
| 2026-05-06 03:03 | 36.07827 | -115.14098 | 2118 ft | 13 kts | 90° |
| 2026-05-06 03:03 | 36.07827 | -115.14001 | 2121 ft | 9 kts | 90° |
| 2026-05-06 03:03 | 36.07827 | -115.13924 | 2123 ft | 11 kts | 90° |
| 2026-05-06 03:04 | 36.07827 | -115.13814 | 2124 ft | 16 kts | 90° |
| 2026-05-06 03:04 | 36.07827 | -115.13651 | 2123 ft | 22 kts | 90° |
| 2026-05-06 03:04 | 36.07827 | -115.13454 | 2126 ft | 23 kts | 90° |
| 2026-05-06 03:04 | 36.07828 | -115.13244 | 2123 ft | 26 kts | 90° |
| 2026-05-06 03:05 | 36.07828 | -115.13004 | 2120 ft | 29 kts | 90° |
| 2026-05-06 03:05 | 36.07828 | -115.12750 | 2116 ft | 31 kts | 90° |
| 2026-05-06 03:05 | 36.07828 | -115.12509 | 2117 ft | 26 kts | 90° |
| 2026-05-06 03:05 | 36.07828 | -115.12321 | 2118 ft | 15 kts | 91° |
| 2026-05-06 03:06 | 36.07786 | -115.12206 | 2119 ft | 15 kts | 128° |
| 2026-05-06 03:06 | 36.07750 | -115.12152 | 2121 ft | 0 kts | 131° |
| 2026-05-06 03:06 | 36.07745 | -115.12146 | 2122 ft | 5 kts | 135° |
| 2026-05-06 03:07 | 36.07674 | -115.12122 | 2126 ft | 16 kts | 189° |
| 2026-05-06 03:07 | 36.07643 | -115.12240 | 2124 ft | 18 kts | 269° |
| 2026-05-06 03:07 | 36.07641 | -115.12594 | 2124 ft | 76 kts | 270° |
| 2026-05-06 03:07 | 36.07640 | -115.13541 | 2125 ft | 138 kts | 269° |
| 2026-05-06 03:08 | 36.07639 | -115.14934 | 2224 ft | 176 kts | 268° |
| 2026-05-06 03:08 | 36.07655 | -115.16475 | 2834 ft | 183 kts | 269° |
| 2026-05-06 03:08 | 36.07665 | -115.18048 | 3645 ft | 181 kts | 268° |
| 2026-05-06 03:08 | 36.07662 | -115.19671 | 4041 ft | 200 kts | 268° |
| 2026-05-06 03:09 | 36.07654 | -115.21498 | 4376 ft | 225 kts | 269° |
| 2026-05-06 03:09 | 36.07647 | -115.23497 | 4992 ft | 237 kts | 269° |
| 2026-05-06 03:09 | 36.07659 | -115.25549 | 5880 ft | 240 kts | 274° |
| 2026-05-06 03:09 | 36.08229 | -115.27499 | 6646 ft | 248 kts | 308° |
| 2026-05-06 03:10 | 36.09630 | -115.28737 | 7415 ft | 254 kts | 341° |
| 2026-05-06 03:10 | 36.11351 | -115.29252 | 8356 ft | 253 kts | 347° |
| 2026-05-06 03:10 | 36.13090 | -115.29555 | 9281 ft | 254 kts | 2° |
| 2026-05-06 03:10 | 36.14809 | -115.29079 | 10130 ft | 256 kts | 24° |
| 2026-05-06 03:11 | 36.16294 | -115.27820 | 10744 ft | 270 kts | 45° |
| 2026-05-06 03:11 | 36.17375 | -115.25802 | 11042 ft | 296 kts | 64° |
| 2026-05-06 03:11 | 36.18156 | -115.23337 | 11341 ft | 318 kts | 67° |
| 2026-05-06 03:11 | 36.18950 | -115.20746 | 11984 ft | 326 kts | 69° |
| 2026-05-06 03:12 | 36.19492 | -115.18003 | 12783 ft | 331 kts | 79° |
| 2026-05-06 03:12 | 36.19620 | -115.15139 | 13609 ft | 335 kts | 87° |
| 2026-05-06 03:12 | 36.19616 | -115.12245 | 14347 ft | 337 kts | 87° |
| 2026-05-06 03:12 | 36.19615 | -115.09333 | 15025 ft | 339 kts | 87° |
| 2026-05-06 03:13 | 36.19616 | -115.06400 | 15730 ft | 342 kts | 87° |
| 2026-05-06 03:13 | 36.19619 | -115.03447 | 16422 ft | 345 kts | 87° |
| 2026-05-06 03:13 | 36.19618 | -115.00468 | 17109 ft | 348 kts | 87° |
| 2026-05-06 03:13 | 36.19615 | -114.97462 | 17812 ft | 350 kts | 88° |
| 2026-05-06 03:14 | 36.19613 | -114.94437 | 18452 ft | 353 kts | 87° |
| 2026-05-06 03:14 | 36.19774 | -114.91411 | 19047 ft | 353 kts | 78° |
| 2026-05-06 03:14 | 36.20383 | -114.88474 | 19646 ft | 352 kts | 68° |
| 2026-05-06 03:14 | 36.21418 | -114.85728 | 20265 ft | 353 kts | 58° |
| 2026-05-06 03:15 | 36.22842 | -114.83257 | 20865 ft | 354 kts | 50° |
| 2026-05-06 03:15 | 36.24418 | -114.80903 | 21489 ft | 355 kts | 50° |
| 2026-05-06 03:15 | 36.25999 | -114.78538 | 22087 ft | 357 kts | 50° |
| 2026-05-06 03:15 | 36.27588 | -114.76160 | 22691 ft | 359 kts | 50° |
| 2026-05-06 03:16 | 36.29181 | -114.73761 | 23274 ft | 362 kts | 51° |
| 2026-05-06 03:16 | 36.30781 | -114.71342 | 23769 ft | 364 kts | 51° |
| 2026-05-06 03:16 | 36.32384 | -114.68911 | 24290 ft | 364 kts | 51° |
| 2026-05-06 03:16 | 36.33991 | -114.66478 | 24807 ft | 365 kts | 51° |
| 2026-05-06 03:17 | 36.35602 | -114.64049 | 25323 ft | 365 kts | 50° |
| 2026-05-06 03:17 | 36.37355 | -114.61773 | 25799 ft | 366 kts | 42° |
| 2026-05-06 03:17 | 36.39357 | -114.59822 | 26273 ft | 367 kts | 39° |
| 2026-05-06 03:17 | 36.41390 | -114.57903 | 26757 ft | 367 kts | 39° |
| 2026-05-06 03:18 | 36.43426 | -114.55978 | 27246 ft | 368 kts | 39° |
| 2026-05-06 03:18 | 36.45463 | -114.54052 | 27712 ft | 368 kts | 39° |
| 2026-05-06 03:18 | 36.47503 | -114.52119 | 28159 ft | 369 kts | 39° |
| 2026-05-06 03:18 | 36.49548 | -114.50177 | 28595 ft | 370 kts | 39° |
| 2026-05-06 03:19 | 36.51595 | -114.48230 | 28997 ft | 371 kts | 39° |
| 2026-05-06 03:19 | 36.53645 | -114.46280 | 29435 ft | 371 kts | 39° |
| 2026-05-06 03:19 | 36.55803 | -114.44494 | 29840 ft | 374 kts | 34° |
| 2026-05-06 03:19 | 36.58015 | -114.42783 | 30144 ft | 375 kts | 34° |
| 2026-05-06 03:20 | 36.62451 | -114.39343 | 30835 ft | 375 kts | 34° |
| 2026-05-06 03:20 | 36.64665 | -114.37621 | 31238 ft | 375 kts | 34° |
| 2026-05-06 03:20 | 36.66882 | -114.35903 | 31597 ft | 375 kts | 34° |
| 2026-05-06 03:21 | 36.69098 | -114.34187 | 31973 ft | 375 kts | 34° |
| 2026-05-06 03:21 | 36.71311 | -114.32471 | 32351 ft | 375 kts | 34° |
| 2026-05-06 03:21 | 36.73524 | -114.30749 | 32699 ft | 375 kts | 34° |
| 2026-05-06 03:21 | 36.75757 | -114.29008 | 32782 ft | 382 kts | 34° |
| 2026-05-06 03:22 | 36.80349 | -114.25429 | 32800 ft | 394 kts | 34° |
| 2026-05-06 03:22 | 36.85023 | -114.21786 | 32792 ft | 397 kts | 34° |
| 2026-05-06 03:23 | 36.89711 | -114.18135 | 32796 ft | 397 kts | 34° |
| 2026-05-06 03:23 | 36.93604 | -114.15093 | 32800 ft | 397 kts | 34° |
| 2026-05-06 03:24 | 36.98289 | -114.11426 | 32811 ft | 397 kts | 34° |
| 2026-05-06 03:24 | 37.02974 | -114.07752 | 32803 ft | 397 kts | 34° |
| 2026-05-06 03:25 | 37.07662 | -114.04075 | 32787 ft | 398 kts | 33° |
| 2026-05-06 03:25 | 37.12364 | -114.00379 | 32788 ft | 399 kts | 33° |
| 2026-05-06 03:26 | 37.17074 | -113.96672 | 32801 ft | 400 kts | 33° |
| 2026-05-06 03:26 | 37.21786 | -113.92955 | 32803 ft | 400 kts | 33° |
| 2026-05-06 03:27 | 37.26503 | -113.89232 | 32814 ft | 400 kts | 33° |
| 2026-05-06 03:27 | 37.31217 | -113.85506 | 32822 ft | 400 kts | 33° |
| 2026-05-06 03:28 | 37.35931 | -113.81765 | 32805 ft | 401 kts | 33° |
| 2026-05-06 03:28 | 37.40679 | -113.78000 | 32815 ft | 401 kts | 33° |
| 2026-05-06 03:29 | 37.45398 | -113.74254 | 32833 ft | 402 kts | 33° |
| 2026-05-06 03:29 | 37.50126 | -113.70492 | 32820 ft | 402 kts | 33° |
| 2026-05-06 03:30 | 37.54864 | -113.66717 | 32821 ft | 403 kts | 33° |
| 2026-05-06 03:30 | 37.59601 | -113.62930 | 32798 ft | 403 kts | 32° |
| 2026-05-06 03:31 | 37.64348 | -113.59135 | 32807 ft | 404 kts | 32° |
| 2026-05-06 03:31 | 37.69095 | -113.55337 | 32804 ft | 404 kts | 32° |
| 2026-05-06 03:32 | 37.73851 | -113.51534 | 32806 ft | 404 kts | 32° |
| 2026-05-06 03:32 | 37.78603 | -113.47728 | 32807 ft | 404 kts | 32° |
| 2026-05-06 03:33 | 37.83352 | -113.43922 | 32801 ft | 404 kts | 32° |
| 2026-05-06 03:33 | 37.88111 | -113.40119 | 32837 ft | 405 kts | 32° |
| 2026-05-06 03:34 | 37.92873 | -113.36300 | 32828 ft | 405 kts | 32° |
| 2026-05-06 03:34 | 37.97636 | -113.32471 | 32801 ft | 406 kts | 32° |
| 2026-05-06 03:35 | 38.02401 | -113.28623 | 32804 ft | 406 kts | 32° |
| 2026-05-06 03:35 | 38.07166 | -113.24767 | 32807 ft | 406 kts | 32° |
| 2026-05-06 03:36 | 38.11934 | -113.20914 | 32810 ft | 406 kts | 31° |
| 2026-05-06 03:36 | 38.16703 | -113.17058 | 32837 ft | 406 kts | 31° |
| 2026-05-06 03:37 | 38.21469 | -113.13186 | 32865 ft | 407 kts | 31° |
| 2026-05-06 03:37 | 38.26232 | -113.09315 | 32896 ft | 407 kts | 31° |
| 2026-05-06 03:38 | 38.31001 | -113.05434 | 32905 ft | 407 kts | 31° |
| 2026-05-06 03:38 | 38.35789 | -113.01591 | 32910 ft | 407 kts | 27° |
| 2026-05-06 03:39 | 38.40968 | -112.98708 | 32909 ft | 406 kts | 22° |
| 2026-05-06 03:39 | 38.46187 | -112.95931 | 32906 ft | 406 kts | 22° |
| 2026-05-06 03:40 | 38.51406 | -112.93141 | 32899 ft | 407 kts | 22° |
| 2026-05-06 03:40 | 38.56627 | -112.90354 | 32881 ft | 407 kts | 22° |
| 2026-05-06 03:41 | 38.61849 | -112.87572 | 32855 ft | 407 kts | 22° |
| 2026-05-06 03:41 | 38.67073 | -112.84768 | 32841 ft | 407 kts | 22° |
| 2026-05-06 03:42 | 38.72300 | -112.81961 | 32827 ft | 408 kts | 22° |
| 2026-05-06 03:42 | 38.77530 | -112.79153 | 32830 ft | 408 kts | 22° |
| 2026-05-06 03:43 | 38.82771 | -112.76333 | 32837 ft | 409 kts | 22° |
| 2026-05-06 03:43 | 38.88011 | -112.73500 | 32829 ft | 409 kts | 22° |
| 2026-05-06 03:44 | 38.93256 | -112.70662 | 32832 ft | 409 kts | 22° |
| 2026-05-06 03:44 | 38.98508 | -112.67826 | 32832 ft | 409 kts | 22° |
| 2026-05-06 03:45 | 39.03754 | -112.64984 | 32832 ft | 409 kts | 22° |
| 2026-05-06 03:45 | 39.08995 | -112.62136 | 32796 ft | 409 kts | 21° |
| 2026-05-06 03:46 | 39.11622 | -112.60701 | 32239 ft | 408 kts | 22° |
| 2026-05-06 03:46 | 39.14217 | -112.59287 | 31664 ft | 403 kts | 22° |
| 2026-05-06 03:46 | 39.16789 | -112.57885 | 31093 ft | 400 kts | 22° |
| 2026-05-06 03:46 | 39.19342 | -112.56497 | 30523 ft | 396 kts | 22° |
| 2026-05-06 03:47 | 39.21874 | -112.55122 | 29970 ft | 394 kts | 22° |
| 2026-05-06 03:47 | 39.24385 | -112.53750 | 29378 ft | 391 kts | 22° |
| 2026-05-06 03:47 | 39.26881 | -112.52385 | 28822 ft | 389 kts | 22° |
| 2026-05-06 03:47 | 39.29368 | -112.51029 | 28277 ft | 387 kts | 21° |
| 2026-05-06 03:48 | 39.31923 | -112.49991 | 27746 ft | 384 kts | 14° |
| 2026-05-06 03:48 | 39.34508 | -112.49146 | 27212 ft | 382 kts | 14° |
| 2026-05-06 03:48 | 39.37080 | -112.48298 | 26701 ft | 381 kts | 14° |
| 2026-05-06 03:48 | 39.39639 | -112.47448 | 26196 ft | 379 kts | 14° |
| 2026-05-06 03:49 | 39.42186 | -112.46599 | 25700 ft | 377 kts | 14° |
| 2026-05-06 03:49 | 39.44722 | -112.45755 | 25237 ft | 376 kts | 13° |
| 2026-05-06 03:49 | 39.47252 | -112.44916 | 24847 ft | 375 kts | 13° |
| 2026-05-06 03:49 | 39.49780 | -112.44078 | 24444 ft | 375 kts | 13° |
| 2026-05-06 03:50 | 39.52305 | -112.43240 | 24046 ft | 374 kts | 13° |
| 2026-05-06 03:50 | 39.54821 | -112.42401 | 23654 ft | 373 kts | 13° |
| 2026-05-06 03:50 | 39.57323 | -112.41564 | 23238 ft | 370 kts | 13° |
| 2026-05-06 03:50 | 39.59814 | -112.40734 | 22785 ft | 368 kts | 13° |
| 2026-05-06 03:51 | 39.62283 | -112.39914 | 22356 ft | 365 kts | 13° |
| 2026-05-06 03:51 | 39.64735 | -112.39100 | 21936 ft | 363 kts | 13° |
| 2026-05-06 03:51 | 39.67174 | -112.38288 | 21524 ft | 360 kts | 13° |
| 2026-05-06 03:51 | 39.69593 | -112.37480 | 21110 ft | 358 kts | 13° |
| 2026-05-06 03:52 | 39.71998 | -112.36675 | 20704 ft | 356 kts | 13° |
| 2026-05-06 03:52 | 39.74387 | -112.35874 | 20304 ft | 354 kts | 13° |
| 2026-05-06 03:52 | 39.76758 | -112.35080 | 19919 ft | 351 kts | 13° |
| 2026-05-06 03:52 | 39.79120 | -112.34288 | 19532 ft | 349 kts | 12° |
| 2026-05-06 03:53 | 39.81468 | -112.33500 | 19148 ft | 347 kts | 12° |
| 2026-05-06 03:53 | 39.83799 | -112.32717 | 18780 ft | 345 kts | 12° |
| 2026-05-06 03:53 | 39.86119 | -112.31935 | 18400 ft | 344 kts | 12° |
| 2026-05-06 03:53 | 39.88428 | -112.31149 | 18010 ft | 343 kts | 12° |
| 2026-05-06 03:54 | 39.90726 | -112.30371 | 17612 ft | 341 kts | 12° |
| 2026-05-06 03:54 | 39.93016 | -112.29601 | 17255 ft | 339 kts | 12° |
| 2026-05-06 03:54 | 39.95290 | -112.28838 | 16972 ft | 336 kts | 12° |
| 2026-05-06 03:54 | 39.97553 | -112.28082 | 16960 ft | 336 kts | 12° |
| 2026-05-06 03:55 | 39.99822 | -112.27324 | 16965 ft | 337 kts | 12° |
| 2026-05-06 03:55 | 40.02096 | -112.26561 | 16963 ft | 338 kts | 12° |
| 2026-05-06 03:55 | 40.04374 | -112.25793 | 16964 ft | 339 kts | 12° |
| 2026-05-06 03:55 | 40.06657 | -112.25018 | 16964 ft | 339 kts | 12° |
| 2026-05-06 03:56 | 40.08936 | -112.24244 | 16967 ft | 338 kts | 12° |
| 2026-05-06 03:56 | 40.11215 | -112.23471 | 16967 ft | 338 kts | 12° |
| 2026-05-06 03:56 | 40.13492 | -112.22698 | 16967 ft | 338 kts | 12° |
| 2026-05-06 03:56 | 40.15769 | -112.21928 | 16947 ft | 337 kts | 12° |
| 2026-05-06 03:57 | 40.18028 | -112.21162 | 16506 ft | 334 kts | 12° |
| 2026-05-06 03:57 | 40.20271 | -112.20402 | 16035 ft | 332 kts | 12° |
| 2026-05-06 03:57 | 40.22500 | -112.19642 | 15598 ft | 330 kts | 12° |
| 2026-05-06 03:57 | 40.24712 | -112.18886 | 15152 ft | 327 kts | 12° |
| 2026-05-06 03:58 | 40.26908 | -112.18137 | 14954 ft | 327 kts | 12° |
| 2026-05-06 03:58 | 40.29108 | -112.17385 | 14959 ft | 327 kts | 12° |
| 2026-05-06 03:58 | 40.31311 | -112.16635 | 14966 ft | 327 kts | 12° |
| 2026-05-06 03:58 | 40.33512 | -112.15889 | 14954 ft | 326 kts | 12° |
| 2026-05-06 03:59 | 40.35693 | -112.15146 | 14548 ft | 323 kts | 12° |
| 2026-05-06 03:59 | 40.37866 | -112.14406 | 14106 ft | 321 kts | 12° |
| 2026-05-06 03:59 | 40.40017 | -112.13674 | 13681 ft | 319 kts | 12° |
| 2026-05-06 03:59 | 40.42155 | -112.12945 | 13200 ft | 317 kts | 12° |
| 2026-05-06 04:00 | 40.44281 | -112.12218 | 13002 ft | 315 kts | 12° |
| 2026-05-06 04:00 | 40.46404 | -112.11491 | 13013 ft | 316 kts | 12° |
| 2026-05-06 04:00 | 40.48526 | -112.10763 | 13021 ft | 315 kts | 12° |
| 2026-05-06 04:00 | 40.50639 | -112.10043 | 12705 ft | 312 kts | 12° |
| 2026-05-06 04:01 | 40.52736 | -112.09333 | 12221 ft | 311 kts | 12° |
| 2026-05-06 04:01 | 40.54834 | -112.08627 | 12031 ft | 312 kts | 11° |
| 2026-05-06 04:01 | 40.56973 | -112.08249 | 12043 ft | 311 kts | 1° |
| 2026-05-06 04:01 | 40.59136 | -112.08106 | 12047 ft | 311 kts | 1° |
| 2026-05-06 04:02 | 40.60597 | -112.08007 | 12044 ft | 311 kts | 1° |
| 2026-05-06 04:02 | 40.63465 | -112.07848 | 12040 ft | 311 kts | 357° |
| 2026-05-06 04:02 | 40.64922 | -112.07992 | 12044 ft | 311 kts | 354° |
| 2026-05-06 04:02 | 40.67063 | -112.08248 | 11709 ft | 307 kts | 354° |
| 2026-05-06 04:03 | 40.69186 | -112.08501 | 11248 ft | 306 kts | 354° |
| 2026-05-06 04:03 | 40.71309 | -112.08753 | 11029 ft | 307 kts | 354° |
| 2026-05-06 04:03 | 40.73432 | -112.09000 | 11018 ft | 304 kts | 354° |
| 2026-05-06 04:03 | 40.75482 | -112.09235 | 11011 ft | 287 kts | 354° |
| 2026-05-06 04:04 | 40.77417 | -112.09456 | 11004 ft | 271 kts | 354° |
| 2026-05-06 04:04 | 40.79241 | -112.09669 | 11033 ft | 256 kts | 354° |
| 2026-05-06 04:04 | 40.80964 | -112.09877 | 11032 ft | 242 kts | 354° |
| 2026-05-06 04:04 | 40.82592 | -112.10032 | 11029 ft | 227 kts | 355° |
| 2026-05-06 04:05 | 40.84118 | -112.10147 | 11027 ft | 212 kts | 355° |
| 2026-05-06 04:05 | 40.85555 | -112.10249 | 10960 ft | 203 kts | 355° |
| 2026-05-06 04:05 | 40.86946 | -112.10341 | 10825 ft | 199 kts | 355° |
| 2026-05-06 04:05 | 40.88297 | -112.10426 | 10641 ft | 189 kts | 355° |
| 2026-05-06 04:06 | 40.89582 | -112.10507 | 10460 ft | 180 kts | 355° |
| 2026-05-06 04:06 | 40.90808 | -112.10581 | 10210 ft | 174 kts | 356° |
| 2026-05-06 04:06 | 40.92022 | -112.10661 | 9800 ft | 177 kts | 355° |
| 2026-05-06 04:06 | 40.93295 | -112.10718 | 9136 ft | 189 kts | 0° |
| 2026-05-06 04:07 | 40.94624 | -112.10459 | 8572 ft | 196 kts | 14° |
| 2026-05-06 04:07 | 40.95890 | -112.09760 | 8064 ft | 200 kts | 28° |
| 2026-05-06 04:07 | 40.96941 | -112.08548 | 7586 ft | 203 kts | 51° |
| 2026-05-06 04:07 | 40.97486 | -112.06841 | 7203 ft | 203 kts | 79° |
| 2026-05-06 04:08 | 40.97341 | -112.05006 | 6850 ft | 203 kts | 110° |
| 2026-05-06 04:08 | 40.96531 | -112.03526 | 6506 ft | 198 kts | 142° |
| 2026-05-06 04:08 | 40.95367 | -112.02614 | 6154 ft | 192 kts | 153° |
| 2026-05-06 04:08 | 40.94221 | -112.01812 | 5994 ft | 174 kts | 157° |
| 2026-05-06 04:09 | 40.93138 | -112.01392 | 5985 ft | 154 kts | 171° |
| 2026-05-06 04:09 | 40.92106 | -112.01258 | 5986 ft | 146 kts | 175° |
| 2026-05-06 04:09 | 40.91099 | -112.01141 | 5992 ft | 145 kts | 175° |
| 2026-05-06 04:09 | 40.90099 | -112.01022 | 5999 ft | 144 kts | 175° |
| 2026-05-06 04:10 | 40.89105 | -112.00905 | 5918 ft | 145 kts | 175° |
| 2026-05-06 04:10 | 40.88109 | -112.00790 | 5716 ft | 143 kts | 175° |
| 2026-05-06 04:10 | 40.87126 | -112.00676 | 5515 ft | 141 kts | 174° |
| 2026-05-06 04:10 | 40.86130 | -112.00560 | 5305 ft | 147 kts | 175° |
| 2026-05-06 04:11 | 40.85108 | -112.00441 | 5101 ft | 148 kts | 174° |
| 2026-05-06 04:11 | 40.84092 | -112.00291 | 4877 ft | 145 kts | 173° |
| 2026-05-06 04:11 | 40.83089 | -112.00189 | 4747 ft | 146 kts | 176° |
| 2026-05-06 04:11 | 40.82085 | -112.00075 | 4527 ft | 145 kts | 173° |
| 2026-05-06 04:12 | 40.81088 | -111.99968 | 4346 ft | 142 kts | 173° |
| 2026-05-06 04:12 | 40.80121 | -111.99849 | 4231 ft | 130 kts | 171° |
| 2026-05-06 04:12 | 40.79582 | -111.99783 | 4226 ft | 36 kts | 178° |
| 2026-05-06 04:12 | 40.79467 | -111.99693 | 4227 ft | 19 kts | 55° |
| 2026-05-06 04:13 | 40.79516 | -111.99621 | 4224 ft | 0 kts | 52° |
| 2026-05-06 04:14 | 40.79521 | -111.99572 | 4225 ft | 7 kts | 124° |
| 2026-05-06 04:14 | 40.79434 | -111.99556 | 4226 ft | 18 kts | 176° |
| 2026-05-06 04:14 | 40.79284 | -111.99539 | 4229 ft | 23 kts | 174° |
| 2026-05-06 04:14 | 40.79177 | -111.99526 | 4232 ft | 11 kts | 175° |
| 2026-05-06 04:15 | 40.79099 | -111.99483 | 4233 ft | 14 kts | 117° |
| 2026-05-06 04:15 | 40.79101 | -111.99347 | 4233 ft | 16 kts | 85° |
| 2026-05-06 04:15 | 40.79112 | -111.99192 | 4232 ft | 18 kts | 85° |
| 2026-05-06 04:15 | 40.79122 | -111.99019 | 4232 ft | 18 kts | 91° |
| 2026-05-06 04:16 | 40.79060 | -111.98942 | 4230 ft | 13 kts | 167° |
| 2026-05-06 04:16 | 40.78966 | -111.98904 | 4229 ft | 7 kts | 157° |